sensor_id;sensor_type;location;lat;lon;timestamp;pressure;altitude;pressure_sealevel;temperature;humidity
14343;BME280;7255;53.596;9.960;2023-03-21T00:01:49;101287.34;;;9.33;nan
14343;BME280;7255;53.596;9.960;2023-03-21T00:04:16;101282.41;;;9.37;nan
14343;BME280;7255;53.596;9.960;2023-03-21T00:06:42;101280.31;;;9.25;nan
14343;BME280;7255;53.596;9.960;2023-03-21T00:09:09;101285.69;;;9.32;nan
14343;BME280;7255;53.596;9.960;2023-03-21T00:11:36;101291.47;;;9.36;nan
14343;BME280;7255;53.596;9.960;2023-03-21T00:14:03;101280.75;;;9.36;nan
14343;BME280;7255;53.596;9.960;2023-03-21T00:16:32;101279.53;;;9.45;nan
14343;BME280;7255;53.596;9.960;2023-03-21T00:19:00;101286.06;;;9.22;nan
14343;BME280;7255;53.596;9.960;2023-03-21T00:21:28;101282.78;;;9.20;nan
14343;BME280;7255;53.596;9.960;2023-03-21T00:23:56;101274.13;;;9.32;nan
14343;BME280;7255;53.596;9.960;2023-03-21T00:26:24;101271.69;;;9.37;nan
14343;BME280;7255;53.596;9.960;2023-03-21T00:28:50;101274.56;;;9.29;nan
14343;BME280;7255;53.596;9.960;2023-03-21T00:31:17;101276.59;;;9.27;nan
14343;BME280;7255;53.596;9.960;2023-03-21T00:33:44;101279.94;;;9.35;nan
14343;BME280;7255;53.596;9.960;2023-03-21T00:36:11;101272.53;;;9.44;nan
14343;BME280;7255;53.596;9.960;2023-03-21T00:38:37;101266.25;;;9.17;nan
14343;BME280;7255;53.596;9.960;2023-03-21T00:41:05;101263.41;;;9.32;nan
14343;BME280;7255;53.596;9.960;2023-03-21T00:43:34;101267.97;;;9.38;nan
14343;BME280;7255;53.596;9.960;2023-03-21T00:46:00;101264.19;;;9.05;nan
14343;BME280;7255;53.596;9.960;2023-03-21T00:48:27;101244.78;;;9.03;nan
14343;BME280;7255;53.596;9.960;2023-03-21T00:50:55;101267.09;;;9.11;nan
14343;BME280;7255;53.596;9.960;2023-03-21T00:53:23;101255.50;;;9.10;nan
14343;BME280;7255;53.596;9.960;2023-03-21T00:55:50;101256.75;;;9.08;nan
14343;BME280;7255;53.596;9.960;2023-03-21T00:58:17;101258.00;;;9.12;nan
14343;BME280;7255;53.596;9.960;2023-03-21T01:00:45;101254.75;;;9.30;nan
14343;BME280;7255;53.596;9.960;2023-03-21T01:03:14;101266.28;;;9.30;nan
14343;BME280;7255;53.596;9.960;2023-03-21T01:05:43;101254.75;;;9.30;nan
14343;BME280;7255;53.596;9.960;2023-03-21T01:08:30;101252.25;;;9.28;nan
14343;BME280;7255;53.596;9.960;2023-03-21T01:11:00;101245.69;;;9.31;nan
14343;BME280;7255;53.596;9.960;2023-03-21T01:13:27;101297.19;;;9.19;nan
14343;BME280;7255;53.596;9.960;2023-03-21T01:15:57;101241.53;;;9.21;nan
14343;BME280;7255;53.596;9.960;2023-03-21T01:18:27;101246.53;;;9.38;nan
14343;BME280;7255;53.596;9.960;2023-03-21T01:20:54;101246.94;;;9.48;nan
14343;BME280;7255;53.596;9.960;2023-03-21T01:23:21;101256.03;;;9.60;nan
14343;BME280;7255;53.596;9.960;2023-03-21T01:25:49;101246.09;;;9.41;nan
14343;BME280;7255;53.596;9.960;2023-03-21T01:28:15;101242.78;;;9.39;nan
14343;BME280;7255;53.596;9.960;2023-03-21T01:30:44;101249.78;;;9.27;nan
14343;BME280;7255;53.596;9.960;2023-03-21T01:33:13;101251.47;;;9.41;nan
14343;BME280;7255;53.596;9.960;2023-03-21T01:35:40;101244.06;;;9.50;nan
14343;BME280;7255;53.596;9.960;2023-03-21T01:38:07;101236.59;;;9.45;nan
14343;BME280;7255;53.596;9.960;2023-03-21T01:40:35;101230.03;;;9.48;nan
14343;BME280;7255;53.596;9.960;2023-03-21T01:43:02;101239.53;;;9.57;nan
14343;BME280;7255;53.596;9.960;2023-03-21T01:48:35;101236.59;;;9.45;nan
14343;BME280;7255;53.596;9.960;2023-03-21T01:51:04;101245.72;;;9.57;nan
14343;BME280;7255;53.596;9.960;2023-03-21T01:53:32;101246.53;;;9.58;nan
14343;BME280;7255;53.596;9.960;2023-03-21T01:56:05;101239.91;;;9.54;nan
14343;BME280;7255;53.596;9.960;2023-03-21T01:58:34;101238.28;;;9.59;nan
14343;BME280;7255;53.596;9.960;2023-03-21T02:01:02;101230.84;;;9.61;nan
14343;BME280;7255;53.596;9.960;2023-03-21T02:03:29;101237.84;;;9.56;nan
14343;BME280;7255;53.596;9.960;2023-03-21T02:06:05;101233.72;;;9.40;nan
14343;BME280;7255;53.596;9.960;2023-03-21T02:08:34;101228.34;;;9.47;nan
14343;BME280;7255;53.596;9.960;2023-03-21T02:11:00;101222.59;;;9.63;nan
14343;BME280;7255;53.596;9.960;2023-03-21T02:13:28;101232.94;;;9.73;nan
14343;BME280;7255;53.596;9.960;2023-03-21T02:16:01;101225.91;;;9.72;nan
14343;BME280;7255;53.596;9.960;2023-03-21T02:18:36;101209.38;;;9.61;nan
14343;BME280;7255;53.596;9.960;2023-03-21T02:24:32;101226.72;;;9.52;nan
14343;BME280;7255;53.596;9.960;2023-03-21T02:27:11;101221.34;;;9.59;nan
14343;BME280;7255;53.596;9.960;2023-03-21T02:30:03;101222.19;;;9.73;nan
14343;BME280;7255;53.596;9.960;2023-03-21T02:32:51;101216.00;;;9.66;nan
14343;BME280;7255;53.596;9.960;2023-03-21T02:35:32;101211.03;;;9.62;nan
14343;BME280;7255;53.596;9.960;2023-03-21T02:38:07;101201.97;;;9.63;nan
14343;BME280;7255;53.596;9.960;2023-03-21T02:40:39;101206.09;;;9.73;nan
14343;BME280;7255;53.596;9.960;2023-03-21T02:43:12;101208.97;;;9.78;nan
14343;BME280;7255;53.596;9.960;2023-03-21T02:45:44;101204.03;;;9.68;nan
14343;BME280;7255;53.596;9.960;2023-03-21T02:48:14;101211.44;;;9.79;nan
14343;BME280;7255;53.596;9.960;2023-03-21T02:50:46;101201.12;;;9.63;nan
14343;BME280;7255;53.596;9.960;2023-03-21T02:53:18;101204.44;;;9.72;nan
14343;BME280;7255;53.596;9.960;2023-03-21T02:55:46;101200.72;;;9.66;nan
14343;BME280;7255;53.596;9.960;2023-03-21T02:58:15;101197.41;;;9.71;nan
14343;BME280;7255;53.596;9.960;2023-03-21T03:00:42;101197.00;;;9.54;nan
14343;BME280;7255;53.596;9.960;2023-03-21T03:03:10;101194.13;;;9.55;nan
14343;BME280;7255;53.596;9.960;2023-03-21T03:05:41;101203.19;;;9.61;nan
14343;BME280;7255;53.596;9.960;2023-03-21T03:08:18;101198.22;;;9.78;nan
14343;BME280;7255;53.596;9.960;2023-03-21T03:10:59;101200.09;;;9.84;nan
14343;BME280;7255;53.596;9.960;2023-03-21T03:13:40;101194.94;;;9.89;nan
14343;BME280;7255;53.596;9.960;2023-03-21T03:16:16;101201.94;;;9.97;nan
14343;BME280;7255;53.596;9.960;2023-03-21T03:18:49;101189.97;;;9.79;nan
14343;BME280;7255;53.596;9.960;2023-03-21T03:21:19;101187.50;;;9.78;nan
14343;BME280;7255;53.596;9.960;2023-03-21T03:23:52;101200.31;;;9.82;nan
14343;BME280;7255;53.596;9.960;2023-03-21T03:26:22;101187.50;;;9.85;nan
14343;BME280;7255;53.596;9.960;2023-03-21T03:28:53;101192.44;;;9.81;nan
14343;BME280;7255;53.596;9.960;2023-03-21T03:31:25;101182.94;;;9.85;nan
14343;BME280;7255;53.596;9.960;2023-03-21T03:33:55;101172.22;;;9.85;nan
14343;BME280;7255;53.596;9.960;2023-03-21T03:36:27;101186.25;;;9.87;nan
14343;BME280;7255;53.596;9.960;2023-03-21T03:38:58;101184.56;;;9.99;nan
14343;BME280;7255;53.596;9.960;2023-03-21T03:41:26;101174.69;;;9.87;nan
14343;BME280;7255;53.596;9.960;2023-03-21T03:43:55;101182.53;;;9.81;nan
14343;BME280;7255;53.596;9.960;2023-03-21T03:46:26;101173.88;;;9.79;nan
14343;BME280;7255;53.596;9.960;2023-03-21T03:48:57;101175.09;;;9.90;nan
14343;BME280;7255;53.596;9.960;2023-03-21T03:51:29;101184.16;;;10.02;nan
14343;BME280;7255;53.596;9.960;2023-03-21T03:54:02;101177.97;;;9.95;nan
14343;BME280;7255;53.596;9.960;2023-03-21T03:56:30;101173.88;;;9.93;nan
14343;BME280;7255;53.596;9.960;2023-03-21T03:58:58;101181.69;;;9.94;nan
14343;BME280;7255;53.596;9.960;2023-03-21T04:01:28;101173.88;;;9.86;nan
14343;BME280;7255;53.596;9.960;2023-03-21T04:03:55;101175.13;;;9.83;nan
14343;BME280;7255;53.596;9.960;2023-03-21T04:06:21;101182.53;;;9.88;nan
14343;BME280;7255;53.596;9.960;2023-03-21T04:08:48;101173.03;;;9.92;nan
14343;BME280;7255;53.596;9.960;2023-03-21T04:11:16;101171.78;;;9.95;nan
14343;BME280;7255;53.596;9.960;2023-03-21T04:13:42;101168.50;;;9.93;nan
14343;BME280;7255;53.596;9.960;2023-03-21T04:16:09;101175.50;;;9.87;nan
14343;BME280;7255;53.596;9.960;2023-03-21T04:18:37;101180.09;;;9.80;nan
14343;BME280;7255;53.596;9.960;2023-03-21T04:21:07;101175.50;;;9.87;nan
14343;BME280;7255;53.596;9.960;2023-03-21T04:23:33;101168.50;;;9.86;nan
14343;BME280;7255;53.596;9.960;2023-03-21T04:25:59;101181.31;;;9.84;nan
14343;BME280;7255;53.596;9.960;2023-03-21T04:28:27;101174.28;;;9.90;nan
14343;BME280;7255;53.596;9.960;2023-03-21T04:30:53;101165.63;;;9.81;nan
14343;BME280;7255;53.596;9.960;2023-03-21T04:33:21;101175.13;;;9.83;nan
14343;BME280;7255;53.596;9.960;2023-03-21T04:35:50;101162.94;;;9.88;nan
14343;BME280;7255;53.596;9.960;2023-03-21T04:38:20;101157.31;;;10.02;nan
14343;BME280;7255;53.596;9.960;2023-03-21T04:40:46;101163.91;;;10.07;nan
14343;BME280;7255;53.596;9.960;2023-03-21T04:43:13;101170.13;;;10.00;nan
14343;BME280;7255;53.596;9.960;2023-03-21T04:45:40;101170.50;;;10.11;nan
14343;BME280;7255;53.596;9.960;2023-03-21T04:48:07;101169.28;;;10.13;nan
14343;BME280;7255;53.596;9.960;2023-03-21T04:50:33;101173.78;;;10.26;nan
14343;BME280;7255;53.596;9.960;2023-03-21T04:53:00;101167.56;;;10.26;nan
14343;BME280;7255;53.596;9.960;2023-03-21T04:55:26;101170.50;;;10.11;nan
14343;BME280;7255;53.596;9.960;2023-03-21T04:57:56;101170.50;;;10.11;nan
14343;BME280;7255;53.596;9.960;2023-03-21T05:00:22;101163.50;;;10.10;nan
14343;BME280;7255;53.596;9.960;2023-03-21T05:02:51;101173.38;;;10.23;nan
14343;BME280;7255;53.596;9.960;2023-03-21T05:05:17;101163.44;;;10.30;nan
14343;BME280;7255;53.596;9.960;2023-03-21T05:07:43;101176.28;;;10.21;nan
14343;BME280;7255;53.596;9.960;2023-03-21T05:10:10;101174.19;;;10.23;nan
14343;BME280;7255;53.596;9.960;2023-03-21T05:12:37;101168.41;;;10.33;nan
14343;BME280;7255;53.596;9.960;2023-03-21T05:15:04;101165.94;;;10.31;nan
14343;BME280;7255;53.596;9.960;2023-03-21T05:17:31;101175.00;;;10.24;nan
14343;BME280;7255;53.596;9.960;2023-03-21T05:19:58;101159.34;;;10.14;nan
14343;BME280;7255;53.596;9.960;2023-03-21T05:22:25;101166.34;;;10.21;nan
14343;BME280;7255;53.596;9.960;2023-03-21T05:24:53;101169.22;;;10.27;nan
14343;BME280;7255;53.596;9.960;2023-03-21T05:27:21;101159.75;;;10.24;nan
14343;BME280;7255;53.596;9.960;2023-03-21T05:30:00;101158.91;;;10.37;nan
14343;BME280;7255;53.596;9.960;2023-03-21T05:32:27;101163.88;;;10.33;nan
14343;BME280;7255;53.596;9.960;2023-03-21T05:34:53;101163.41;;;10.43;nan
14343;BME280;7255;53.596;9.960;2023-03-21T05:37:21;101165.87;;;10.51;nan
14343;BME280;7255;53.596;9.960;2023-03-21T05:39:48;101162.94;;;10.53;nan
14343;BME280;7255;53.596;9.960;2023-03-21T05:42:15;101161.72;;;10.55;nan
14343;BME280;7255;53.596;9.960;2023-03-21T05:44:42;101160.84;;;10.62;nan
14343;BME280;7255;53.596;9.960;2023-03-21T05:47:08;101160.88;;;10.55;nan
14343;BME280;7255;53.596;9.960;2023-03-21T05:49:35;101157.94;;;10.63;nan
14343;BME280;7255;53.596;9.960;2023-03-21T05:52:01;101157.09;;;10.69;nan
14343;BME280;7255;53.596;9.960;2023-03-21T05:54:29;101153.41;;;10.64;nan
14343;BME280;7255;53.596;9.960;2023-03-21T05:56:55;101151.69;;;10.69;nan
14343;BME280;7255;53.596;9.960;2023-03-21T05:59:22;101153.38;;;10.70;nan
14343;BME280;7255;53.596;9.960;2023-03-21T06:01:48;101162.44;;;10.76;nan
14343;BME280;7255;53.596;9.960;2023-03-21T06:04:14;101160.34;;;10.78;nan
14343;BME280;7255;53.596;9.960;2023-03-21T06:06:41;101152.06;;;10.79;nan
14343;BME280;7255;53.596;9.960;2023-03-21T06:09:07;101158.31;;;10.73;nan
14343;BME280;7255;53.596;9.960;2023-03-21T06:11:36;101154.25;;;10.64;nan
14343;BME280;7255;53.596;9.960;2023-03-21T06:14:03;101150.91;;;10.62;nan
14343;BME280;7255;53.596;9.960;2023-03-21T06:16:30;101151.69;;;10.69;nan
14343;BME280;7255;53.596;9.960;2023-03-21T06:18:56;101136.03;;;10.66;nan
14343;BME280;7255;53.596;9.960;2023-03-21T06:21:23;101143.84;;;10.68;nan
14343;BME280;7255;53.596;9.960;2023-03-21T06:23:49;101145.13;;;10.58;nan
14343;BME280;7255;53.596;9.960;2023-03-21T06:26:16;101147.22;;;10.56;nan
14343;BME280;7255;53.596;9.960;2023-03-21T06:28:48;101142.31;;;10.53;nan
14343;BME280;7255;53.596;9.960;2023-03-21T06:31:14;101137.34;;;10.50;nan
14343;BME280;7255;53.596;9.960;2023-03-21T06:33:41;101139.38;;;10.55;nan
14343;BME280;7255;53.596;9.960;2023-03-21T06:36:08;101139.38;;;10.55;nan
14343;BME280;7255;53.596;9.960;2023-03-21T06:38:34;101141.41;;;10.66;nan
14343;BME280;7255;53.596;9.960;2023-03-21T06:41:02;101150.47;;;10.72;nan
14343;BME280;7255;53.596;9.960;2023-03-21T06:43:29;101136.44;;;10.63;nan
14343;BME280;7255;53.596;9.960;2023-03-21T06:45:57;101136.94;;;10.47;nan
14343;BME280;7255;53.596;9.960;2023-03-21T06:48:24;101144.75;;;10.55;nan
14343;BME280;7255;53.596;9.960;2023-03-21T06:50:51;101139.34;;;10.62;nan
14343;BME280;7255;53.596;9.960;2023-03-21T06:53:19;101143.44;;;10.71;nan
14343;BME280;7255;53.596;9.960;2023-03-21T06:55:48;101141.75;;;10.76;nan
14343;BME280;7255;53.596;9.960;2023-03-21T06:58:16;101147.19;;;10.63;nan
14343;BME280;7255;53.596;9.960;2023-03-21T07:00:42;101144.25;;;10.71;nan
14343;BME280;7255;53.596;9.960;2023-03-21T07:03:12;101140.91;;;10.83;nan
14343;BME280;7255;53.596;9.960;2023-03-21T07:05:38;101146.59;;;10.93;nan
14343;BME280;7255;53.596;9.960;2023-03-21T07:08:05;101152.03;;;10.86;nan
14343;BME280;7255;53.596;9.960;2023-03-21T07:10:37;101146.19;;;10.96;nan
14343;BME280;7255;53.596;9.960;2023-03-21T07:13:04;101148.22;;;11.01;nan
14343;BME280;7255;53.596;9.960;2023-03-21T07:15:30;101151.56;;;10.96;nan
14343;BME280;7255;53.596;9.960;2023-03-21T07:17:58;101158.16;;;11.00;nan
14343;BME280;7255;53.596;9.960;2023-03-21T07:20:26;101156.06;;;11.02;nan
14343;BME280;7255;53.596;9.960;2023-03-21T07:22:52;101153.56;;;11.07;nan
14343;BME280;7255;53.596;9.960;2023-03-21T07:25:18;101153.94;;;11.11;nan
14343;BME280;7255;53.596;9.960;2023-03-21T07:27:45;101147.75;;;11.10;nan
14343;BME280;7255;53.596;9.960;2023-03-21T07:30:12;101160.91;;;11.18;nan
14343;BME280;7255;53.596;9.960;2023-03-21T07:32:38;101156.81;;;11.16;nan
14343;BME280;7255;53.596;9.960;2023-03-21T07:35:06;101149.72;;;11.22;nan
14343;BME280;7255;53.596;9.960;2023-03-21T07:37:34;101161.38;;;11.15;nan
14343;BME280;7255;53.596;9.960;2023-03-21T07:40:00;101153.84;;;11.24;nan
14343;BME280;7255;53.596;9.960;2023-03-21T07:42:26;101143.47;;;11.28;nan
14343;BME280;7255;53.596;9.960;2023-03-21T07:44:53;101148.84;;;11.28;nan
14343;BME280;7255;53.596;9.960;2023-03-21T07:47:19;101144.75;;;11.25;nan
14343;BME280;7255;53.596;9.960;2023-03-21T07:49:46;101145.66;;;11.12;nan
14343;BME280;7255;53.596;9.960;2023-03-21T07:52:12;101159.69;;;11.21;nan
14343;BME280;7255;53.596;9.960;2023-03-21T07:54:39;101150.12;;;11.25;nan
14343;BME280;7255;53.596;9.960;2023-03-21T07:57:06;101153.13;;;11.10;nan
14343;BME280;7255;53.596;9.960;2023-03-21T07:59:32;101153.97;;;11.04;nan
14343;BME280;7255;53.596;9.960;2023-03-21T08:01:58;101153.38;;;11.02;nan
14343;BME280;7255;53.596;9.960;2023-03-21T08:04:25;101149.91;;;10.95;nan
14343;BME280;7255;53.596;9.960;2023-03-21T08:06:52;101142.00;;;11.00;nan
14343;BME280;7255;53.596;9.960;2023-03-21T08:09:18;101148.59;;;11.04;nan
14343;BME280;7255;53.596;9.960;2023-03-21T08:11:46;101145.31;;;11.02;nan
14343;BME280;7255;53.596;9.960;2023-03-21T08:14:12;101152.81;;;10.93;nan
14343;BME280;7255;53.596;9.960;2023-03-21T08:16:38;101154.44;;;11.01;nan
14343;BME280;7255;53.596;9.960;2023-03-21T08:19:05;101142.53;;;10.84;nan
14343;BME280;7255;53.596;9.960;2023-03-21T08:21:31;101141.69;;;10.90;nan
14343;BME280;7255;53.596;9.960;2023-03-21T08:23:57;101137.06;;;10.97;nan
14343;BME280;7255;53.596;9.960;2023-03-21T08:26:24;101142.78;;;11.07;nan
14343;BME280;7255;53.596;9.960;2023-03-21T08:28:52;101143.16;;;11.17;nan
14343;BME280;7255;53.596;9.960;2023-03-21T08:31:18;101138.84;;;11.35;nan
14343;BME280;7255;53.596;9.960;2023-03-21T08:33:45;101144.56;;;11.45;nan
14343;BME280;7255;53.596;9.960;2023-03-21T08:36:15;101144.88;;;11.55;nan
14343;BME280;7255;53.596;9.960;2023-03-21T08:38:41;101145.22;;;11.66;nan
14343;BME280;7255;53.596;9.960;2023-03-21T08:41:10;101146.94;;;11.60;nan
14343;BME280;7255;53.596;9.960;2023-03-21T08:43:36;101149.41;;;11.62;nan
14343;BME280;7255;53.596;9.960;2023-03-21T08:46:04;101152.25;;;11.67;nan
14343;BME280;7255;53.596;9.960;2023-03-21T08:48:30;101145.53;;;11.76;nan
14343;BME280;7255;53.596;9.960;2023-03-21T08:50:58;101150.16;;;11.69;nan
14343;BME280;7255;53.596;9.960;2023-03-21T08:53:25;101146.03;;;11.66;nan
14343;BME280;7255;53.596;9.960;2023-03-21T08:55:51;101148.56;;;11.61;nan
14343;BME280;7255;53.596;9.960;2023-03-21T08:58:17;101146.03;;;11.66;nan
14343;BME280;7255;53.596;9.960;2023-03-21T09:00:45;101143.56;;;11.65;nan
14343;BME280;7255;53.596;9.960;2023-03-21T09:03:12;101148.94;;;11.65;nan
14343;BME280;7255;53.596;9.960;2023-03-21T09:05:39;101149.06;;;11.51;nan
14343;BME280;7255;53.596;9.960;2023-03-21T09:08:05;101136.97;;;11.61;nan
14343;BME280;7255;53.596;9.960;2023-03-21T09:10:32;101141.16;;;11.56;nan
14343;BME280;7255;53.596;9.960;2023-03-21T09:12:58;101137.31;;;11.71;nan
14343;BME280;7255;53.596;9.960;2023-03-21T09:15:26;101139.41;;;11.69;nan
14343;BME280;7255;53.596;9.960;2023-03-21T09:17:54;101123.81;;;11.52;nan
14343;BME280;7255;53.596;9.960;2023-03-21T09:20:25;101131.69;;;11.54;nan
14343;BME280;7255;53.596;9.960;2023-03-21T09:22:55;101137.78;;;11.61;nan
14343;BME280;7255;53.596;9.960;2023-03-21T09:25:22;101134.87;;;11.63;nan
14343;BME280;7255;53.596;9.960;2023-03-21T09:27:48;101131.59;;;11.61;nan
14343;BME280;7255;53.596;9.960;2023-03-21T09:30:17;101133.25;;;11.62;nan
14343;BME280;7255;53.596;9.960;2023-03-21T09:32:44;101147.75;;;11.61;nan
14343;BME280;7255;53.596;9.960;2023-03-21T09:35:13;101136.53;;;11.64;nan
14343;BME280;7255;53.596;9.960;2023-03-21T09:37:41;101138.16;;;11.65;nan
14343;BME280;7255;53.596;9.960;2023-03-21T09:40:14;101139.06;;;11.59;nan
14343;BME280;7255;53.596;9.960;2023-03-21T09:42:47;101130.84;;;11.53;nan
14343;BME280;7255;53.596;9.960;2023-03-21T09:45:20;101138.94;;;11.72;nan
14343;BME280;7255;53.596;9.960;2023-03-21T09:47:50;101133.75;;;11.96;nan
14343;BME280;7255;53.596;9.960;2023-03-21T09:50:19;101140.47;;;12.23;nan
14343;BME280;7255;53.596;9.960;2023-03-21T09:52:56;101143.31;;;12.28;nan
14343;BME280;7255;53.596;9.960;2023-03-21T09:55:24;101138.16;;;12.27;nan
14343;BME280;7255;53.596;9.960;2023-03-21T09:58:01;101143.69;;;12.32;nan
14343;BME280;7255;53.596;9.960;2023-03-21T10:00:34;101132.28;;;12.18;nan
14343;BME280;7255;53.596;9.960;2023-03-21T10:03:04;101143.62;;;12.39;nan
14343;BME280;7255;53.596;9.960;2023-03-21T10:05:34;101137.31;;;12.45;nan
14343;BME280;7255;53.596;9.960;2023-03-21T10:08:12;101130.00;;;12.33;nan
14343;BME280;7255;53.596;9.960;2023-03-21T10:10:44;101142.13;;;12.24;nan
14343;BME280;7255;53.596;9.960;2023-03-21T10:13:14;101133.13;;;12.49;nan
14343;BME280;7255;53.596;9.960;2023-03-21T10:15:42;101130.50;;;12.61;nan
14343;BME280;7255;53.596;9.960;2023-03-21T10:18:12;101133.84;;;12.56;nan
14343;BME280;7255;53.596;9.960;2023-03-21T10:20:43;101136.00;;;12.17;nan
14343;BME280;7255;53.596;9.960;2023-03-21T10:23:14;101119.78;;;12.24;nan
14343;BME280;7255;53.596;9.960;2023-03-21T10:25:43;101131.19;;;12.38;nan
14343;BME280;7255;53.596;9.960;2023-03-21T10:28:14;101125.44;;;12.34;nan
14343;BME280;7255;53.596;9.960;2023-03-21T10:30:43;101121.25;;;12.38;nan
14343;BME280;7255;53.596;9.960;2023-03-21T10:33:13;101115.50;;;12.35;nan
14343;BME280;7255;53.596;9.960;2023-03-21T10:35:44;101120.41;;;12.38;nan
14343;BME280;7255;53.596;9.960;2023-03-21T10:38:15;101109.38;;;12.27;nan
14343;BME280;7255;53.596;9.960;2023-03-21T10:40:43;101111.47;;;12.25;nan
14343;BME280;7255;53.596;9.960;2023-03-21T10:43:18;101122.44;;;12.42;nan
14343;BME280;7255;53.596;9.960;2023-03-21T10:45:46;101118.22;;;12.46;nan
14343;BME280;7255;53.596;9.960;2023-03-21T10:48:13;101116.88;;;12.56;nan
14343;BME280;7255;53.596;9.960;2023-03-21T10:50:40;101121.34;;;12.62;nan
14343;BME280;7255;53.596;9.960;2023-03-21T10:53:16;101117.25;;;12.59;nan
14343;BME280;7255;53.596;9.960;2023-03-21T10:55:47;101098.66;;;12.21;nan
14343;BME280;7255;53.596;9.960;2023-03-21T10:58:17;101109.13;;;12.29;nan
14343;BME280;7255;53.596;9.960;2023-03-21T11:00:54;101105.44;;;12.42;nan
14343;BME280;7255;53.596;9.960;2023-03-21T11:03:26;101108.75;;;12.44;nan
14343;BME280;7255;53.596;9.960;2023-03-21T11:05:57;101106.97;;;12.19;nan
14343;BME280;7255;53.596;9.960;2023-03-21T11:08:26;101101.13;;;12.22;nan
14343;BME280;7255;53.596;9.960;2023-03-21T11:10:54;101095.75;;;12.22;nan
14343;BME280;7255;53.596;9.960;2023-03-21T11:13:26;101096.03;;;12.32;nan
14343;BME280;7255;53.596;9.960;2023-03-21T11:16:04;101088.25;;;12.24;nan
14343;BME280;7255;53.596;9.960;2023-03-21T11:18:31;101092.22;;;12.03;nan
14343;BME280;7255;53.596;9.960;2023-03-21T11:21:02;101092.59;;;12.07;nan
14343;BME280;7255;53.596;9.960;2023-03-21T11:23:31;101091.63;;;12.20;nan
14343;BME280;7255;53.596;9.960;2023-03-21T11:26:00;101087.06;;;12.20;nan
14343;BME280;7255;53.596;9.960;2023-03-21T11:28:32;101081.22;;;12.23;nan
14343;BME280;7255;53.596;9.960;2023-03-21T11:31:02;101080.69;;;12.33;nan
14343;BME280;7255;53.596;9.960;2023-03-21T11:33:33;101085.53;;;12.43;nan
14343;BME280;7255;53.596;9.960;2023-03-21T11:36:02;101087.25;;;12.37;nan
14343;BME280;7255;53.596;9.960;2023-03-21T11:38:33;101073.44;;;12.33;nan
14343;BME280;7255;53.596;9.960;2023-03-21T11:41:01;101074.00;;;12.36;nan
14343;BME280;7255;53.596;9.960;2023-03-21T11:43:30;101081.44;;;12.40;nan
14343;BME280;7255;53.596;9.960;2023-03-21T11:45:58;101075.47;;;12.50;nan
14343;BME280;7255;53.596;9.960;2023-03-21T11:48:25;101075.03;;;12.53;nan
14343;BME280;7255;53.596;9.960;2023-03-21T11:50:58;101073.81;;;12.49;nan
14343;BME280;7255;53.596;9.960;2023-03-21T11:53:33;101071.28;;;12.24;nan
14343;BME280;7255;53.596;9.960;2023-03-21T11:56:16;101065.78;;;12.00;nan
14343;BME280;7255;53.596;9.960;2023-03-21T11:58:55;101063.59;;;12.09;nan
14343;BME280;7255;53.596;9.960;2023-03-21T12:01:30;101061.69;;;12.28;nan
14343;BME280;7255;53.596;9.960;2023-03-21T12:04:14;101055.00;;;12.30;nan
14343;BME280;7255;53.596;9.960;2023-03-21T12:06:46;101056.22;;;12.35;nan
14343;BME280;7255;53.596;9.960;2023-03-21T12:09:25;101049.91;;;12.41;nan
14343;BME280;7255;53.596;9.960;2023-03-21T12:12:02;101049.31;;;12.81;nan
14343;BME280;7255;53.596;9.960;2023-03-21T12:14:38;101050.63;;;13.02;nan
14343;BME280;7255;53.596;9.960;2023-03-21T12:17:15;101047.63;;;13.34;nan
14343;BME280;7255;53.596;9.960;2023-03-21T12:20:04;101041.41;;;13.33;nan
14343;BME280;7255;53.596;9.960;2023-03-21T12:22:39;101040.13;;;13.36;nan
14343;BME280;7255;53.596;9.960;2023-03-21T12:25:14;101040.34;;;13.34;nan
14343;BME280;7255;53.596;9.960;2023-03-21T12:27:47;101037.97;;;13.14;nan
14343;BME280;7255;53.596;9.960;2023-03-21T12:30:24;101033.16;;;13.04;nan
14343;BME280;7255;53.596;9.960;2023-03-21T12:33:06;101025.38;;;12.73;nan
14343;BME280;7255;53.596;9.960;2023-03-21T12:35:44;101035.00;;;12.68;nan
14343;BME280;7255;53.596;9.960;2023-03-21T12:38:21;101017.84;;;12.51;nan
14343;BME280;7255;53.596;9.960;2023-03-21T12:40:59;101026.53;;;12.53;nan
14343;BME280;7255;53.596;9.960;2023-03-21T12:43:34;101015.97;;;12.63;nan
14343;BME280;7255;53.596;9.960;2023-03-21T12:46:05;101023.97;;;12.28;nan
14343;BME280;7255;53.596;9.960;2023-03-21T12:48:39;101019.19;;;12.42;nan
14343;BME280;7255;53.596;9.960;2023-03-21T12:51:10;101013.47;;;12.08;nan
14343;BME280;7255;53.596;9.960;2023-03-21T12:53:45;101002.41;;;11.98;nan
14343;BME280;7255;53.596;9.960;2023-03-21T12:56:18;101000.16;;;12.13;nan
14343;BME280;7255;53.596;9.960;2023-03-21T12:58:49;100998.50;;;12.12;nan
14343;BME280;7255;53.596;9.960;2023-03-21T13:01:18;101001.97;;;12.31;nan
14343;BME280;7255;53.596;9.960;2023-03-21T13:03:49;100996.37;;;12.44;nan
14343;BME280;7255;53.596;9.960;2023-03-21T13:06:19;100996.47;;;12.38;nan
14343;BME280;7255;53.596;9.960;2023-03-21T13:08:51;100995.09;;;12.47;nan
14343;BME280;7255;53.596;9.960;2023-03-21T13:11:24;100988.44;;;12.19;nan
14343;BME280;7255;53.596;9.960;2023-03-21T13:13:56;100989.34;;;12.43;nan
14343;BME280;7255;53.596;9.960;2023-03-21T13:16:27;100981.75;;;12.52;nan
14343;BME280;7255;53.596;9.960;2023-03-21T13:19:02;100991.03;;;12.68;nan
14343;BME280;7255;53.596;9.960;2023-03-21T13:21:38;100980.56;;;12.60;nan
14343;BME280;7255;53.596;9.960;2023-03-21T13:24:18;100967.91;;;12.37;nan
14343;BME280;7255;53.596;9.960;2023-03-21T13:26:47;100968.25;;;12.40;nan
14343;BME280;7255;53.596;9.960;2023-03-21T13:29:22;100968.97;;;12.47;nan
14343;BME280;7255;53.596;9.960;2023-03-21T13:31:50;100972.63;;;12.53;nan
14343;BME280;7255;53.596;9.960;2023-03-21T13:34:20;100969.78;;;12.48;nan
14343;BME280;7255;53.596;9.960;2023-03-21T13:36:48;100966.75;;;12.56;nan
14343;BME280;7255;53.596;9.960;2023-03-21T13:39:17;100954.53;;;12.42;nan
14343;BME280;7255;53.596;9.960;2023-03-21T13:41:46;100951.50;;;12.50;nan
14343;BME280;7255;53.596;9.960;2023-03-21T13:44:24;100955.91;;;12.32;nan